Decoded Metar for KIJD (WILLIMANTIC in CT, USA) (IATA:IJD) | Meteo·Mobile Aviation Weather
aviador You're here:

KIJD Decoded Metar

WILLIMANTIC in CT, USA
Report Time2018-09-18 15:06:00
UTC Time2018-09-18 15:14:06
Flight Rules mvfr MVFR
Wind220° at 11 Gusting to 17 kt
W.Decomp.*RWY 27: 9.0 kt HW 6.3 kt LCW
RWY 18: 6.3 kt HW 9.0 kt RCW
W.Rank220° ranks 20
Current wind is above 220° avg. (6.6)
Visibility9999 m
Phenomena:Vicinity thunderstorm
Clouds:Overcast 014 Hf
Expected CloudBase > 800 ft AGL from Temp-Dew spread
Ceiling1,400 ft
Temp26°C (ISA +11)
Dew Point24°C (89% RH)
QNH1007 hPa
Density Alt2,169 ft
Elevation246 ft
Report Wrong Elevation
Raw Report
KIJD 181506Z AUTO 22011G17KT 10SM VCTS OVC014 26/24 A2973 RMK AO2
LTG DSNT NE T02560244=

Extra information for KIJD:More info

Metar Taf Metar & Taf Last 4 Metars F.Rules Stats Wind Profile Meteogram Temp Stats Airport Information Weather charts Add Link Nearby VenuesMetar ALERT Operation Metar Decoded Social comments

AIRNAV info for KIJD